CheckWX is a tool to help pilots better visualize weather data.  It is not intended as a substitute for an official pre-flight weather briefing.

02:32:00 UTC

22N METAR
Jake Arner Memorial Airport
Lehighton, Pennsylvania, USA
Current

14 mins ago

K22N 190218Z AUTO 00000KT 10SM CLR 09/08 A3031 RMK AO2
Observed
Sep-19 @ 02:18 UTC
Visibility
10 SM
Flight Rules
VFR
Cloud Levels
  • Clear skies
Temperature
C / 48°F
Dewpoint
C / 46°F
Humidity
94%
Altimeter
30.31" Hg
Pressure
1026.42 hPa
Previous

37 mins ago

K22N 190155Z AUTO 00000KT 10SM CLR 10/09 A3030 RMK AO2
Observed
Sep-19 @ 01:55 UTC
Visibility
10 SM
Flight Rules
VFR
Cloud Levels
  • Clear skies
Temperature
10°C / 50°F
Dewpoint
C / 48°F
Humidity
94%
Altimeter
30.3" Hg
Pressure
1026.12 hPa
Previous

54 mins ago

K22N 190138Z AUTO 00000KT 10SM CLR 10/09 A3030 RMK AO2
Observed
Sep-19 @ 01:38 UTC
Visibility
10 SM
Flight Rules
VFR
Cloud Levels
  • Clear skies
Temperature
10°C / 50°F
Dewpoint
C / 48°F
Humidity
94%
Altimeter
30.3" Hg
Pressure
1026.12 hPa